Time;durP1;ratioP1;P1;durP2;ratioP2;P2;SDS_P1;SDS_P2;PMS_P1;PMS_P2;Temp;Humidity;BMP_temperature;BMP_pressure;BME280_temperature;BME280_humidity;BME280_pressure;Samples;Min_cycle;Max_cycle;Signal;HPM_P1;HPM_P2
2022/07/18 00:01:22;;;;;;;0.00;0.00;;;15.60;99.90;;;;;;4940919;29;20700;-75
2022/07/18 00:03:50;;;;;;;0.00;0.00;;;15.60;99.90;;;;;;4940917;29;21044;-76
2022/07/18 00:06:18;;;;;;;0.00;0.00;;;15.50;99.90;;;;;;4941920;29;20966;-75
2022/07/18 00:08:46;;;;;;;0.00;0.00;;;15.50;99.90;;;;;;4943220;28;20583;-76
2022/07/18 00:11:13;;;;;;;0.00;0.00;;;15.50;99.90;;;;;;4939993;29;20446;-76
2022/07/18 00:13:41;;;;;;;0.00;0.00;;;15.50;99.90;;;;;;4940706;29;20488;-76
2022/07/18 00:16:10;;;;;;;0.00;0.00;;;15.50;99.90;;;;;;4942882;29;20461;-75
2022/07/18 00:18:39;;;;;;;0.00;0.00;;;15.50;99.90;;;;;;4946107;28;20790;-74
2022/07/18 00:21:07;;;;;;;0.00;0.00;;;15.50;99.90;;;;;;4946981;29;20445;-74
2022/07/18 00:23:35;;;;;;;0.00;0.00;;;15.50;99.90;;;;;;4943811;29;20536;-73
2022/07/18 00:26:03;;;;;;;0.00;0.00;;;15.50;99.90;;;;;;4943990;29;20444;-74
2022/07/18 00:28:31;;;;;;;0.00;0.00;;;15.60;99.90;;;;;;4943918;28;20465;-75
2022/07/18 00:30:58;;;;;;;0.00;0.00;;;15.70;99.90;;;;;;4943492;28;20459;-76
2022/07/18 00:33:26;;;;;;;0.00;0.00;;;15.70;99.90;;;;;;4942778;29;20494;-74
2022/07/18 00:35:55;;;;;;;0.00;0.00;;;15.80;99.90;;;;;;4942417;29;20451;-74
2022/07/18 00:38:24;;;;;;;0.00;0.00;;;15.80;99.90;;;;;;4942915;28;20475;-73
2022/07/18 00:40:52;;;;;;;0.00;0.00;;;15.90;99.90;;;;;;4942665;29;20544;-76
2022/07/18 00:43:20;;;;;;;0.00;0.00;;;15.90;99.90;;;;;;4942537;29;20480;-73
2022/07/18 00:45:52;;;;;;;0.00;0.00;;;15.90;99.90;;;;;;4943486;29;20507;-73
2022/07/18 00:48:20;;;;;;;0.00;0.00;;;15.90;99.90;;;;;;4943352;28;20461;-75
2022/07/18 00:50:49;;;;;;;0.00;0.00;;;15.90;99.90;;;;;;4942603;29;20463;-75
2022/07/18 00:53:18;;;;;;;0.00;0.00;;;16.00;99.90;;;;;;4941943;29;20904;-75
2022/07/18 00:55:47;;;;;;;0.00;0.00;;;16.00;99.90;;;;;;4942842;29;20797;-75
2022/07/18 00:58:15;;;;;;;0.00;0.00;;;16.00;99.90;;;;;;4942179;28;20469;-74
2022/07/18 01:03:28;;;;;;;0.00;0.00;;;15.90;99.90;;;;;;4943229;28;20748;-73
2022/07/18 01:05:56;;;;;;;0.00;0.00;;;15.80;99.90;;;;;;4943301;29;20805;-72
2022/07/18 01:08:25;;;;;;;0.00;0.00;;;15.80;99.90;;;;;;4943099;28;20469;-72
2022/07/18 01:10:54;;;;;;;0.00;0.00;;;15.80;99.90;;;;;;4942672;29;20452;-72
2022/07/18 01:13:22;;;;;;;0.00;0.00;;;15.70;99.90;;;;;;4942335;29;20519;-72
2022/07/18 01:15:50;;;;;;;0.00;0.00;;;15.70;99.90;;;;;;4941407;29;20464;-71
2022/07/18 01:18:17;;;;;;;0.00;0.00;;;15.70;99.90;;;;;;4941945;28;20465;-73
2022/07/18 01:20:47;;;;;;;0.00;0.00;;;15.60;99.90;;;;;;4942130;29;20441;-73
2022/07/18 01:23:14;;;;;;;0.00;0.00;;;15.60;99.90;;;;;;4942237;29;20444;-72
2022/07/18 01:25:43;;;;;;;0.00;0.00;;;15.60;99.90;;;;;;4942446;29;20511;-74
2022/07/18 01:28:11;;;;;;;0.00;0.00;;;15.50;99.90;;;;;;4942022;28;20484;-73
2022/07/18 01:30:39;;;;;;;0.00;0.00;;;15.50;99.90;;;;;;4942130;28;20465;-72
2022/07/18 01:33:07;;;;;;;0.00;0.00;;;15.50;99.90;;;;;;4942769;29;20445;-73
2022/07/18 01:35:35;;;;;;;0.00;0.00;;;15.50;99.90;;;;;;4942318;29;20915;-74
2022/07/18 01:38:05;;;;;;;0.00;0.00;;;15.50;99.90;;;;;;4945154;28;20467;-74
2022/07/18 01:40:32;;;;;;;0.00;0.00;;;15.50;99.90;;;;;;4943383;29;20445;-73
2022/07/18 01:43:00;;;;;;;0.00;0.00;;;15.50;99.90;;;;;;4944715;29;20471;-72
2022/07/18 01:45:28;;;;;;;0.00;0.00;;;15.50;99.90;;;;;;4945141;29;20456;-72
2022/07/18 01:47:56;;;;;;;0.00;0.00;;;15.50;99.90;;;;;;4947680;28;20480;-72
2022/07/18 01:50:24;;;;;;;0.00;0.00;;;15.40;99.90;;;;;;4948942;28;20461;-72
2022/07/18 01:52:52;;;;;;;0.00;0.00;;;15.40;99.90;;;;;;4944458;29;20483;-73
2022/07/18 01:55:22;;;;;;;0.00;0.00;;;15.30;99.90;;;;;;4943617;29;20571;-71
2022/07/18 01:57:49;;;;;;;0.00;0.00;;;15.30;99.90;;;;;;4943664;28;20471;-73
2022/07/18 02:00:17;;;;;;;0.00;0.00;;;15.30;99.90;;;;;;4943286;29;20448;-70
2022/07/18 02:02:45;;;;;;;0.00;0.00;;;15.30;99.90;;;;;;4944165;29;20543;-74
2022/07/18 02:05:13;;;;;;;0.00;0.00;;;15.40;99.90;;;;;;4943403;29;20476;-75
2022/07/18 02:07:43;;;;;;;0.00;0.00;;;15.40;99.90;;;;;;4942503;28;20473;-76
2022/07/18 02:10:13;;;;;;;0.00;0.00;;;15.40;99.90;;;;;;4943154;29;20512;-74
2022/07/18 02:12:42;;;;;;;0.00;0.00;;;15.30;99.90;;;;;;4942238;29;20447;-72
2022/07/18 02:15:12;;;;;;;0.00;0.00;;;15.30;99.90;;;;;;4942244;28;21015;-74
2022/07/18 02:24:03;;;;;;;0.00;0.00;;;15.30;99.90;;;;;;4934864;29;20465;-91
2022/07/18 02:26:31;;;;;;;0.00;0.00;;;15.30;99.90;;;;;;4934030;29;20492;-89
2022/07/18 02:29:01;;;;;;;0.00;0.00;;;15.40;99.90;;;;;;4933714;29;20469;-90
2022/07/18 02:31:29;;;;;;;0.00;0.00;;;15.50;99.90;;;;;;4933341;29;20477;-92
2022/07/18 02:33:57;;;;;;;0.00;0.00;;;15.50;99.90;;;;;;4936840;29;20523;-91
2022/07/18 02:36:25;;;;;;;0.00;0.00;;;15.50;99.90;;;;;;4938231;29;20464;-90
2022/07/18 02:38:53;;;;;;;0.00;0.00;;;15.60;99.90;;;;;;4937292;29;20616;-91
2022/07/18 02:41:21;;;;;;;0.00;0.00;;;15.60;99.90;;;;;;4937218;29;20485;-90
2022/07/18 02:43:48;;;;;;;0.00;0.00;;;15.60;99.90;;;;;;4937866;29;20473;-90
2022/07/18 02:46:18;;;;;;;0.00;0.00;;;15.50;99.90;;;;;;4938701;29;20544;-90
2022/07/18 02:48:46;;;;;;;0.00;0.00;;;15.50;99.90;;;;;;4938086;29;20485;-91
2022/07/18 02:51:14;;;;;;;0.00;0.00;;;15.50;99.90;;;;;;4937386;29;20533;-90
2022/07/18 02:53:42;;;;;;;0.00;0.00;;;15.50;99.90;;;;;;4937254;29;20479;-90
2022/07/18 02:56:09;;;;;;;0.00;0.00;;;15.40;99.90;;;;;;4937869;29;20533;-91
2022/07/18 02:58:37;;;;;;;0.00;0.00;;;15.30;99.90;;;;;;4938078;29;20467;-90
2022/07/18 03:01:05;;;;;;;0.00;0.00;;;15.30;99.90;;;;;;4937251;29;20513;-90
2022/07/18 03:03:35;;;;;;;0.00;0.00;;;15.30;99.90;;;;;;4938135;29;20498;-91
2022/07/18 03:06:03;;;;;;;0.00;0.00;;;15.20;99.90;;;;;;4937224;29;20512;-90
2022/07/18 03:08:31;;;;;;;0.00;0.00;;;15.20;99.90;;;;;;4939078;29;20457;-90
2022/07/18 03:10:59;;;;;;;0.00;0.00;;;15.20;99.90;;;;;;4938458;29;20481;-89
2022/07/18 03:13:27;;;;;;;0.00;0.00;;;15.20;99.90;;;;;;4938520;29;20544;-89
2022/07/18 03:15:55;;;;;;;0.00;0.00;;;15.20;99.90;;;;;;4947128;28;20474;-89
2022/07/18 03:18:24;;;;;;;0.00;0.00;;;15.30;99.90;;;;;;4945602;29;21038;-90
2022/07/18 03:20:54;;;;;;;0.00;0.00;;;15.30;99.90;;;;;;4937321;29;20498;-91
2022/07/18 03:23:22;;;;;;;0.00;0.00;;;15.30;99.90;;;;;;4936844;29;21164;-89
2022/07/18 03:25:50;;;;;;;0.00;0.00;;;15.30;99.90;;;;;;4939177;29;20513;-91
2022/07/18 03:28:18;;;;;;;0.00;0.00;;;15.30;99.90;;;;;;4936622;29;20446;-90
2022/07/18 03:30:45;;;;;;;0.00;0.00;;;15.30;99.90;;;;;;4936423;29;21082;-90
2022/07/18 03:33:14;;;;;;;0.00;0.00;;;15.30;99.90;;;;;;4936661;29;20466;-92
2022/07/18 03:35:41;;;;;;;0.00;0.00;;;15.40;99.90;;;;;;4936361;29;20482;-91
2022/07/18 03:38:11;;;;;;;0.00;0.00;;;15.40;99.90;;;;;;4935646;29;20453;-90
2022/07/18 03:40:39;;;;;;;0.00;0.00;;;15.40;99.90;;;;;;4935332;29;20525;-90
2022/07/18 03:43:07;;;;;;;0.00;0.00;;;15.40;99.90;;;;;;4936345;29;20469;-91
2022/07/18 03:45:34;;;;;;;0.00;0.00;;;15.40;99.90;;;;;;4937032;29;20449;-91
2022/07/18 03:48:05;;;;;;;0.00;0.00;;;15.50;99.90;;;;;;4936585;29;20471;-91
2022/07/18 03:50:33;;;;;;;0.00;0.00;;;15.50;99.90;;;;;;4936985;29;20464;-91
2022/07/18 03:53:01;;;;;;;0.00;0.00;;;15.50;99.90;;;;;;4938325;29;21189;-91
2022/07/18 03:55:31;;;;;;;0.00;0.00;;;15.50;99.90;;;;;;4939299;29;20570;-90
2022/07/18 03:57:59;;;;;;;0.00;0.00;;;15.50;99.90;;;;;;4939964;29;20512;-91
2022/07/18 04:00:27;;;;;;;0.00;0.00;;;15.50;99.90;;;;;;4941582;29;20442;-91
2022/07/18 04:02:55;;;;;;;0.00;0.00;;;15.60;99.90;;;;;;4940555;29;20919;-91
2022/07/18 04:05:29;;;;;;;0.00;0.00;;;15.60;99.90;;;;;;4939051;29;20864;-91
2022/07/18 04:07:57;;;;;;;0.00;0.00;;;15.70;99.90;;;;;;4939298;29;21197;-91
2022/07/18 04:10:25;;;;;;;0.00;0.00;;;15.70;99.90;;;;;;4939608;29;20449;-90
2022/07/18 04:12:56;;;;;;;0.00;0.00;;;15.70;99.90;;;;;;4940140;29;20572;-91
2022/07/18 04:15:26;;;;;;;0.00;0.00;;;15.80;99.90;;;;;;4943642;29;20549;-90
2022/07/18 04:17:54;;;;;;;0.00;0.00;;;15.80;99.90;;;;;;4956018;28;20449;-91
2022/07/18 04:20:22;;;;;;;0.00;0.00;;;15.90;99.90;;;;;;4939537;29;20541;-90
2022/07/18 04:22:53;;;;;;;0.00;0.00;;;15.90;99.90;;;;;;4940361;29;20859;-90
2022/07/18 04:25:23;;;;;;;0.00;0.00;;;15.90;99.90;;;;;;4938791;29;20461;-91
2022/07/18 04:27:52;;;;;;;0.00;0.00;;;15.90;99.90;;;;;;4940046;29;20521;-90
2022/07/18 04:30:23;;;;;;;0.00;0.00;;;16.00;99.90;;;;;;4937937;29;20477;-91
2022/07/18 04:32:52;;;;;;;0.00;0.00;;;16.00;99.90;;;;;;4939791;29;20496;-89
2022/07/18 04:35:21;;;;;;;0.00;0.00;;;16.00;99.90;;;;;;4937341;29;20487;-91
2022/07/18 04:37:49;;;;;;;0.00;0.00;;;15.90;99.90;;;;;;4939560;29;20437;-88
2022/07/18 04:40:17;;;;;;;0.00;0.00;;;15.90;99.90;;;;;;4938301;29;20561;-88
2022/07/18 04:42:46;;;;;;;0.00;0.00;;;15.90;99.90;;;;;;4938196;29;21045;-91
2022/07/18 04:45:15;;;;;;;0.00;0.00;;;16.00;99.90;;;;;;4933521;29;20445;-90
2022/07/18 04:47:44;;;;;;;0.00;0.00;;;15.90;99.90;;;;;;4935231;29;20477;-88
2022/07/18 04:50:12;;;;;;;0.00;0.00;;;16.00;99.90;;;;;;4938621;29;20508;-90
2022/07/18 04:52:42;;;;;;;0.00;0.00;;;16.10;99.90;;;;;;4937216;29;20509;-91
2022/07/18 04:55:11;;;;;;;0.00;0.00;;;16.10;99.90;;;;;;4923009;29;20480;-90
2022/07/18 04:57:39;;;;;;;0.00;0.00;;;16.20;99.90;;;;;;4931252;29;20456;-88
2022/07/18 05:00:12;;;;;;;0.00;0.00;;;16.30;99.90;;;;;;4927226;29;20669;-90
2022/07/18 05:02:41;;;;;;;0.00;0.00;;;16.50;99.90;;;;;;4919660;29;21009;-90
2022/07/18 05:05:11;;;;;;;0.00;0.00;;;16.60;99.90;;;;;;4918598;29;20439;-91
2022/07/18 05:07:41;;;;;;;0.00;0.00;;;16.80;99.90;;;;;;4920465;29;20503;-91
2022/07/18 05:10:14;;;;;;;0.00;0.00;;;16.90;99.90;;;;;;4919791;29;20522;-89
2022/07/18 05:12:44;;;;;;;0.00;0.00;;;16.90;99.90;;;;;;4925313;29;20727;-91
2022/07/18 05:15:13;;;;;;;0.00;0.00;;;17.00;99.90;;;;;;4940593;29;20871;-89
2022/07/18 05:17:42;;;;;;;0.00;0.00;;;17.10;99.90;;;;;;4952837;29;20468;-90
2022/07/18 05:20:14;;;;;;;0.00;0.00;;;17.20;99.90;;;;;;4943288;29;20474;-89
2022/07/18 05:22:43;;;;;;;0.00;0.00;;;17.30;99.90;;;;;;4939885;29;20469;-89
2022/07/18 05:25:12;;;;;;;0.00;0.00;;;17.50;99.90;;;;;;4940785;29;20475;-92
2022/07/18 05:27:42;;;;;;;0.00;0.00;;;17.60;99.90;;;;;;4944941;29;20443;-90
2022/07/18 05:30:13;;;;;;;0.00;0.00;;;17.70;99.90;;;;;;4947334;29;21108;-91
2022/07/18 05:32:41;;;;;;;0.00;0.00;;;17.80;99.90;;;;;;4947138;29;20459;-90
2022/07/18 05:35:12;;;;;;;0.00;0.00;;;17.90;99.90;;;;;;4939834;29;20506;-90
2022/07/18 05:37:40;;;;;;;0.00;0.00;;;17.90;99.90;;;;;;4941387;29;20470;-90
2022/07/18 05:40:11;;;;;;;0.00;0.00;;;17.90;99.90;;;;;;4941147;29;20478;-90
2022/07/18 05:42:39;;;;;;;0.00;0.00;;;17.80;99.90;;;;;;4941359;29;20475;-92
2022/07/18 05:45:24;;;;;;;0.00;0.00;;;17.80;99.90;;;;;;4938918;29;20542;-91
2022/07/18 05:47:52;;;;;;;0.00;0.00;;;17.80;99.90;;;;;;4938776;29;20493;-91
2022/07/18 05:50:22;;;;;;;0.00;0.00;;;17.80;99.90;;;;;;4939940;29;20474;-86
2022/07/18 05:52:50;;;;;;;0.00;0.00;;;17.80;99.90;;;;;;4946546;28;21110;-89
2022/07/18 05:55:19;;;;;;;0.00;0.00;;;17.90;99.90;;;;;;4943256;29;20531;-90
2022/07/18 05:57:47;;;;;;;0.00;0.00;;;17.90;99.90;;;;;;4938306;29;20459;-91
2022/07/18 06:00:16;;;;;;;0.00;0.00;;;18.00;99.90;;;;;;4940502;29;20510;-91
2022/07/18 06:02:44;;;;;;;0.00;0.00;;;18.10;99.90;;;;;;4944777;29;20502;-89
2022/07/18 06:05:12;;;;;;;0.00;0.00;;;18.20;99.90;;;;;;4938852;29;20954;-91
2022/07/18 06:07:53;;;;;;;0.00;0.00;;;18.40;99.90;;;;;;4941730;29;20655;-91
2022/07/18 06:10:22;;;;;;;0.00;0.00;;;18.50;99.90;;;;;;4947828;29;20464;-90
2022/07/18 06:12:50;;;;;;;0.00;0.00;;;18.70;99.90;;;;;;4945619;29;20816;-91
2022/07/18 06:15:19;;;;;;;0.00;0.00;;;18.80;99.90;;;;;;4939385;29;20457;-90
2022/07/18 06:17:47;;;;;;;0.00;0.00;;;18.90;99.90;;;;;;4941043;29;20500;-89
2022/07/18 06:20:15;;;;;;;0.00;0.00;;;19.10;99.90;;;;;;4956883;28;20433;-89
2022/07/18 06:22:43;;;;;;;0.00;0.00;;;19.20;99.90;;;;;;4950127;29;20543;-88
2022/07/18 06:25:13;;;;;;;0.00;0.00;;;19.30;99.90;;;;;;4953304;28;20476;-87
2022/07/18 06:27:41;;;;;;;0.00;0.00;;;19.40;99.90;;;;;;4949807;29;20470;-89
2022/07/18 06:30:10;;;;;;;0.00;0.00;;;19.40;99.90;;;;;;4942301;29;20426;-87
2022/07/18 06:32:38;;;;;;;0.00;0.00;;;19.50;99.90;;;;;;4935511;29;21102;-90
2022/07/18 06:35:07;;;;;;;0.00;0.00;;;19.50;99.90;;;;;;4934839;29;20534;-90
2022/07/18 06:37:36;;;;;;;0.00;0.00;;;19.50;99.90;;;;;;4925201;29;20994;-91
2022/07/18 06:40:05;;;;;;;0.00;0.00;;;19.60;99.90;;;;;;4940506;29;20497;-88
2022/07/18 06:42:38;;;;;;;0.00;0.00;;;19.60;99.90;;;;;;4935554;29;20569;-91
2022/07/18 06:45:10;;;;;;;0.00;0.00;;;19.70;99.90;;;;;;4934693;29;21107;-90
2022/07/18 06:47:41;;;;;;;0.00;0.00;;;19.70;99.90;;;;;;4934052;29;20430;-91
2022/07/18 06:50:11;;;;;;;0.00;0.00;;;19.70;99.90;;;;;;4934731;29;20639;-91
2022/07/18 06:52:40;;;;;;;0.00;0.00;;;19.80;99.90;;;;;;4934787;29;20482;-90
2022/07/18 06:55:09;;;;;;;0.00;0.00;;;19.90;99.90;;;;;;4948970;23;20446;-77
2022/07/18 06:57:38;;;;;;;0.00;0.00;;;19.90;99.90;;;;;;4915625;28;20883;-78
2022/07/18 07:00:08;;;;;;;0.00;0.00;;;20.00;99.90;;;;;;4911778;29;20446;-75
2022/07/18 07:02:41;;;;;;;0.00;0.00;;;20.10;99.90;;;;;;4902874;29;20447;-77
2022/07/18 07:05:10;;;;;;;0.00;0.00;;;20.20;99.90;;;;;;4902639;29;20459;-79
2022/07/18 07:07:38;;;;;;;0.00;0.00;;;20.30;99.90;;;;;;4908892;29;20490;-78
2022/07/18 07:10:14;;;;;;;0.00;0.00;;;20.40;99.90;;;;;;4907192;29;20450;-75
2022/07/18 07:12:45;;;;;;;0.00;0.00;;;20.50;99.90;;;;;;4913022;29;20441;-79
2022/07/18 07:15:13;;;;;;;0.00;0.00;;;20.50;99.90;;;;;;4908376;29;20457;-78
2022/07/18 07:17:44;;;;;;;0.00;0.00;;;20.60;99.90;;;;;;4903509;29;20534;-72
2022/07/18 07:20:13;;;;;;;0.00;0.00;;;20.70;99.90;;;;;;4905206;29;20550;-76
2022/07/18 07:22:45;;;;;;;0.00;0.00;;;20.80;99.90;;;;;;4909919;29;20458;-76
2022/07/18 07:25:13;;;;;;;0.00;0.00;;;20.80;99.90;;;;;;4907328;29;20446;-77
2022/07/18 07:27:42;;;;;;;0.00;0.00;;;21.00;99.90;;;;;;4919123;29;20489;-76
2022/07/18 07:30:13;;;;;;;0.00;0.00;;;21.10;99.90;;;;;;4906582;29;20829;-75
2022/07/18 07:32:43;;;;;;;0.00;0.00;;;21.20;99.90;;;;;;4903487;29;21022;-75
2022/07/18 07:35:13;;;;;;;0.00;0.00;;;21.20;99.90;;;;;;4903954;29;20453;-75
2022/07/18 07:37:43;;;;;;;0.00;0.00;;;21.40;99.90;;;;;;4904470;29;21005;-74
2022/07/18 07:40:11;;;;;;;0.00;0.00;;;21.60;99.90;;;;;;4903270;29;20451;-70
2022/07/18 07:42:39;;;;;;;0.00;0.00;;;21.70;99.90;;;;;;4904676;29;20446;-71
2022/07/18 07:45:08;;;;;;;0.00;0.00;;;21.80;99.90;;;;;;4904333;29;20882;-70
2022/07/18 07:47:38;;;;;;;0.00;0.00;;;21.80;99.90;;;;;;4924600;29;20664;-70
2022/07/18 07:50:08;;;;;;;0.00;0.00;;;21.90;99.90;;;;;;4921525;29;21028;-70
2022/07/18 07:52:37;;;;;;;0.00;0.00;;;21.90;99.90;;;;;;4923970;29;20452;-70
2022/07/18 07:55:05;;;;;;;0.00;0.00;;;21.90;99.90;;;;;;4909818;29;20482;-69
2022/07/18 07:57:35;;;;;;;0.00;0.00;;;22.10;99.90;;;;;;4902276;29;20848;-70
2022/07/18 08:00:07;;;;;;;0.00;0.00;;;22.30;99.90;;;;;;4906278;29;20459;-70
2022/07/18 08:02:34;;;;;;;0.00;0.00;;;22.50;99.90;;;;;;4920601;29;20686;-70
2022/07/18 08:05:04;;;;;;;0.00;0.00;;;22.60;99.90;;;;;;4911980;29;20620;-70
2022/07/18 08:07:32;;;;;;;0.00;0.00;;;22.80;99.90;;;;;;4900785;29;20571;-70
2022/07/18 08:10:00;;;;;;;0.00;0.00;;;22.90;99.90;;;;;;4901001;29;20792;-73
2022/07/18 08:12:28;;;;;;;0.00;0.00;;;22.90;99.90;;;;;;4913933;29;20486;-71
2022/07/18 08:14:55;;;;;;;0.00;0.00;;;23.00;99.90;;;;;;4917764;29;20500;-71
2022/07/18 08:17:23;;;;;;;0.00;0.00;;;23.00;99.90;;;;;;4920040;29;20668;-72
2022/07/18 08:19:51;;;;;;;0.00;0.00;;;23.00;99.90;;;;;;4934996;29;20986;-72
2022/07/18 08:22:20;;;;;;;0.00;0.00;;;23.20;99.90;;;;;;4919834;29;20582;-70
2022/07/18 08:24:48;;;;;;;0.00;0.00;;;23.40;99.90;;;;;;4901715;29;20465;-72
2022/07/18 08:27:16;;;;;;;0.00;0.00;;;23.60;99.90;;;;;;4901428;29;20478;-72
2022/07/18 08:29:44;;;;;;;0.00;0.00;;;23.70;99.90;;;;;;4916176;29;20470;-71
2022/07/18 08:32:31;;;;;;;0.00;0.00;;;23.80;99.90;;;;;;4914934;29;20445;-71
2022/07/18 08:34:59;;;;;;;0.00;0.00;;;23.80;99.90;;;;;;4912807;29;20541;-72
2022/07/18 08:37:28;;;;;;;0.00;0.00;;;23.80;99.90;;;;;;4912109;29;20500;-70
2022/07/18 08:39:56;;;;;;;0.00;0.00;;;23.70;99.90;;;;;;4916591;29;20805;-75
2022/07/18 08:42:27;;;;;;;0.00;0.00;;;23.70;99.90;;;;;;4907237;29;20467;-70
2022/07/18 08:44:57;;;;;;;0.00;0.00;;;23.70;99.90;;;;;;4916013;29;20458;-72
2022/07/18 08:47:28;;;;;;;0.00;0.00;;;23.60;99.90;;;;;;4909338;29;20466;-71
2022/07/18 08:49:58;;;;;;;0.00;0.00;;;23.70;99.90;;;;;;4917635;29;20470;-70
2022/07/18 08:52:26;;;;;;;0.00;0.00;;;23.70;99.90;;;;;;4909961;29;20484;-72
2022/07/18 08:55:15;;;;;;;0.00;0.00;;;23.90;99.90;;;;;;4913840;29;20445;-70
2022/07/18 08:57:52;;;;;;;0.00;0.00;;;23.90;99.90;;;;;;4922819;29;20485;-72
2022/07/18 09:00:21;;;;;;;0.00;0.00;;;24.00;99.90;;;;;;4917635;29;20464;-71
2022/07/18 09:02:58;;;;;;;0.13;0.00;;;24.20;99.90;;;;;;4916634;29;20867;-74
2022/07/18 09:05:27;;;;;;;0.00;0.00;;;24.30;99.90;;;;;;4906086;29;20548;-78
2022/07/18 09:08:15;;;;;;;0.00;0.00;;;24.40;99.90;;;;;;4911184;29;20475;-73
2022/07/18 09:10:52;;;;;;;0.00;0.00;;;24.40;99.90;;;;;;4917829;29;20509;-71
2022/07/18 09:13:24;;;;;;;0.00;0.00;;;24.40;99.90;;;;;;4905811;29;21067;-73
2022/07/18 09:16:02;;;;;;;0.00;0.00;;;24.30;99.90;;;;;;4910280;29;21110;-73
2022/07/18 09:18:32;;;;;;;0.00;0.00;;;24.30;99.90;;;;;;4915603;29;20915;-73
2022/07/18 09:21:06;;;;;;;0.00;0.00;;;24.20;99.90;;;;;;4908264;29;20454;-74
2022/07/18 09:23:35;;;;;;;0.00;0.00;;;24.30;99.90;;;;;;4912657;29;20455;-75
2022/07/18 09:26:05;;;;;;;0.00;0.00;;;24.40;99.90;;;;;;4915412;29;20467;-75
2022/07/18 09:28:47;;;;;;;0.00;0.00;;;24.50;99.90;;;;;;4918526;29;20754;-75
2022/07/18 09:31:35;;;;;;;0.00;0.00;;;24.70;99.90;;;;;;4905281;29;20444;-73
2022/07/18 09:34:05;;;;;;;0.00;0.00;;;24.70;99.90;;;;;;4913219;29;20538;-75
2022/07/18 09:36:36;;;;;;;0.00;0.00;;;24.60;99.90;;;;;;4922060;29;20446;-74
2022/07/18 09:39:19;;;;;;;0.00;0.00;;;24.70;99.90;;;;;;4918348;29;20489;-75
2022/07/18 09:41:48;;;;;;;0.00;0.00;;;24.80;99.90;;;;;;4921223;29;20460;-75
2022/07/18 09:44:17;;;;;;;0.00;0.00;;;24.80;99.90;;;;;;4922780;29;20557;-75
2022/07/18 09:47:00;;;;;;;0.00;0.00;;;24.80;99.90;;;;;;4918915;29;20555;-74
2022/07/18 09:49:30;;;;;;;0.00;0.00;;;24.80;99.90;;;;;;4917362;29;20460;-75
2022/07/18 09:52:05;;;;;;;0.00;0.00;;;24.90;99.90;;;;;;4904638;29;20664;-76
2022/07/18 09:54:38;;;;;;;0.00;0.00;;;25.00;99.90;;;;;;4907502;29;20547;-77
2022/07/18 09:57:08;;;;;;;0.00;0.00;;;25.10;99.90;;;;;;4911041;29;20493;-76
2022/07/18 09:59:37;;;;;;;0.00;0.00;;;25.20;99.90;;;;;;4909143;29;20488;-71
2022/07/18 10:02:04;;;;;;;0.00;0.00;;;25.40;99.90;;;;;;4916412;29;20463;-71
2022/07/18 10:04:33;;;;;;;0.00;0.00;;;25.70;99.90;;;;;;4904001;29;20457;-72
2022/07/18 10:07:00;;;;;;;0.00;0.00;;;25.90;99.90;;;;;;4909944;29;20490;-73
2022/07/18 10:09:29;;;;;;;0.00;0.00;;;26.00;99.90;;;;;;4912318;29;20589;-73
2022/07/18 10:11:57;;;;;;;0.00;0.00;;;26.20;99.90;;;;;;4917355;29;20450;-73
2022/07/18 10:14:31;;;;;;;0.00;0.00;;;26.20;99.90;;;;;;4923446;29;20814;-72
2022/07/18 10:17:00;;;;;;;0.00;0.00;;;26.20;99.90;;;;;;4907636;29;21037;-73
2022/07/18 10:19:28;;;;;;;0.00;0.00;;;26.30;99.90;;;;;;4923096;29;20517;-73
2022/07/18 10:21:58;;;;;;;0.00;0.00;;;26.40;99.90;;;;;;4922311;29;20779;-73
2022/07/18 10:24:27;;;;;;;0.00;0.00;;;26.50;99.90;;;;;;4922615;28;20858;-73
2022/07/18 10:27:16;;;;;;;0.00;0.00;;;26.80;99.90;;;;;;4928413;29;20559;-71
2022/07/18 10:30:09;;;;;;;0.00;0.00;;;26.80;99.90;;;;;;4923209;29;20549;-72
2022/07/18 10:32:37;;;;;;;0.00;0.00;;;26.90;99.90;;;;;;4904196;29;20447;-72
2022/07/18 10:35:07;;;;;;;0.00;0.00;;;26.90;99.90;;;;;;4912823;29;20842;-72
2022/07/18 10:37:35;;;;;;;0.00;0.00;;;26.90;99.90;;;;;;4910564;29;20845;-72
2022/07/18 10:40:22;;;;;;;0.00;0.00;;;27.00;99.90;;;;;;4913126;29;20913;-71
2022/07/18 10:43:23;;;;;;;0.00;0.00;;;27.10;99.90;;;;;;4913055;29;20468;-72
2022/07/18 10:45:52;;;;;;;0.00;0.00;;;27.30;99.90;;;;;;4903607;29;20517;-72
2022/07/18 10:48:49;;;;;;;0.00;0.00;;;27.60;99.90;;;;;;4903461;29;20463;-72
2022/07/18 10:51:17;;;;;;;0.00;0.00;;;27.80;99.90;;;;;;4902684;29;20987;-73
2022/07/18 10:53:57;;;;;;;0.00;0.00;;;28.00;99.90;;;;;;4904467;29;20506;-71
2022/07/18 10:57:05;;;;;;;0.00;0.00;;;28.30;99.90;;;;;;4911196;29;20511;-72
2022/07/18 10:59:34;;;;;;;0.00;0.00;;;28.50;99.90;;;;;;4911293;29;20575;-72
2022/07/18 11:02:06;;;;;;;0.00;0.00;;;28.70;99.90;;;;;;4910203;29;20474;-72
2022/07/18 11:04:38;;;;;;;0.00;0.00;;;28.80;99.90;;;;;;4911049;29;20540;-71
2022/07/18 11:07:13;;;;;;;0.00;0.00;;;28.90;99.90;;;;;;4911842;29;20568;-71
2022/07/18 11:09:43;;;;;;;0.00;0.00;;;29.00;99.90;;;;;;4910691;29;20553;-72
2022/07/18 11:12:26;;;;;;;0.00;0.00;;;29.10;99.90;;;;;;4910451;29;20466;-73
2022/07/18 11:15:05;;;;;;;0.00;0.00;;;29.10;99.90;;;;;;4911319;29;20949;-73
2022/07/18 11:18:04;;;;;;;0.00;0.00;;;29.00;98.70;;;;;;4910114;29;20472;-72
2022/07/18 11:20:41;;;;;;;0.00;0.00;;;28.90;98.60;;;;;;4911598;29;20450;-73
2022/07/18 11:23:20;;;;;;;0.00;0.00;;;28.80;98.90;;;;;;4909901;29;20512;-72
2022/07/18 11:25:49;;;;;;;0.00;0.00;;;28.80;99.00;;;;;;4915856;29;20468;-71
2022/07/18 11:28:25;;;;;;;0.00;0.00;;;28.80;98.90;;;;;;4901837;29;20470;-72
2022/07/18 11:31:01;;;;;;;0.00;0.00;;;28.90;99.10;;;;;;4901991;29;20540;-73
2022/07/18 11:33:33;;;;;;;0.00;0.00;;;29.00;99.00;;;;;;4901691;29;21078;-73
2022/07/18 11:36:05;;;;;;;0.00;0.00;;;29.20;99.20;;;;;;4902120;29;20931;-74
2022/07/18 11:38:35;;;;;;;0.00;0.00;;;29.30;99.20;;;;;;4901887;29;20509;-73
2022/07/18 11:41:04;;;;;;;0.00;0.00;;;29.20;99.00;;;;;;4902560;29;20530;-73
2022/07/18 11:43:32;;;;;;;0.00;0.00;;;29.30;99.10;;;;;;4902699;29;20618;-73
2022/07/18 11:46:01;;;;;;;0.00;0.00;;;29.40;99.30;;;;;;4901928;29;21018;-72
2022/07/18 11:48:31;;;;;;;0.00;0.00;;;29.40;98.70;;;;;;4901790;29;20914;-72
2022/07/18 11:50:59;;;;;;;0.00;0.00;;;29.30;98.30;;;;;;4902721;29;20537;-72
2022/07/18 11:53:27;;;;;;;0.00;0.00;;;29.30;98.20;;;;;;4902653;29;20445;-72
2022/07/18 11:55:55;;;;;;;0.00;0.00;;;29.50;98.60;;;;;;4902606;29;20525;-73
2022/07/18 11:58:23;;;;;;;0.00;0.00;;;29.50;98.70;;;;;;4902366;29;20573;-74
2022/07/18 12:00:51;;;;;;;0.00;0.00;;;29.70;98.40;;;;;;4901353;29;20466;-72
2022/07/18 12:03:22;;;;;;;0.00;0.00;;;29.60;98.10;;;;;;4902263;29;20545;-73
2022/07/18 12:05:54;;;;;;;0.00;0.00;;;29.40;97.90;;;;;;4901888;29;20465;-73
2022/07/18 12:08:34;;;;;;;0.00;0.00;;;29.30;97.90;;;;;;4902527;29;20558;-73
2022/07/18 12:11:17;;;;;;;0.00;0.00;;;29.30;97.90;;;;;;4903432;29;21034;-73
2022/07/18 12:13:52;;;;;;;0.00;0.00;;;29.30;97.70;;;;;;4905075;29;21153;-73
2022/07/18 12:16:31;;;;;;;0.00;0.00;;;29.40;97.90;;;;;;4907345;29;20516;-72
2022/07/18 12:19:05;;;;;;;0.00;0.00;;;29.60;98.20;;;;;;4908054;29;20481;-73
2022/07/18 12:21:43;;;;;;;0.00;0.00;;;29.80;98.30;;;;;;4907207;29;20438;-73
2022/07/18 12:24:19;;;;;;;0.00;0.00;;;29.80;97.40;;;;;;4906423;29;21167;-72
2022/07/18 12:26:47;;;;;;;0.00;0.00;;;29.80;97.30;;;;;;4906633;29;20545;-75
2022/07/18 12:29:15;;;;;;;0.00;0.00;;;29.70;97.70;;;;;;4905137;29;21155;-72
2022/07/18 12:31:45;;;;;;;0.00;0.00;;;29.80;97.80;;;;;;4905448;29;20446;-72
2022/07/18 12:34:15;;;;;;;0.00;0.00;;;29.90;97.90;;;;;;4912459;29;20450;-72
2022/07/18 12:36:56;;;;;;;0.00;0.00;;;29.90;98.00;;;;;;4926212;29;20521;-73
2022/07/18 12:39:29;;;;;;;0.00;0.00;;;30.00;97.40;;;;;;4928195;29;20484;-73
2022/07/18 12:41:58;;;;;;;0.00;0.00;;;30.00;97.40;;;;;;4914821;29;20576;-73
2022/07/18 12:44:26;;;;;;;0.00;0.00;;;30.10;97.60;;;;;;4911435;29;20521;-74
2022/07/18 12:46:55;;;;;;;0.00;0.00;;;30.10;97.20;;;;;;4915034;29;20528;-74
2022/07/18 12:49:22;;;;;;;0.00;0.00;;;30.10;97.20;;;;;;4913698;29;20437;-72
2022/07/18 12:51:51;;;;;;;0.00;0.00;;;30.10;97.00;;;;;;4924730;29;20553;-73
2022/07/18 12:54:21;;;;;;;0.00;0.00;;;30.00;96.90;;;;;;4924869;29;20441;-73
2022/07/18 12:56:48;;;;;;;0.00;0.00;;;29.90;96.60;;;;;;4911959;29;20500;-72
2022/07/18 12:59:16;;;;;;;0.00;0.00;;;29.80;96.50;;;;;;4926494;29;20448;-73
2022/07/18 13:01:44;;;;;;;0.00;0.00;;;29.70;96.80;;;;;;4927900;29;20693;-72
2022/07/18 13:04:12;;;;;;;0.00;0.00;;;29.70;96.80;;;;;;4928184;29;20445;-73
2022/07/18 13:06:40;;;;;;;0.00;0.00;;;29.70;96.90;;;;;;4927877;29;20685;-74
2022/07/18 13:09:08;;;;;;;0.00;0.00;;;29.80;97.00;;;;;;4927908;29;20528;-74
2022/07/18 13:11:37;;;;;;;0.00;0.00;;;29.80;97.00;;;;;;4920331;29;20600;-74
2022/07/18 13:14:05;;;;;;;0.00;0.00;;;29.80;96.80;;;;;;4909894;29;20458;-73